sensor_id;sensor_type;location;lat;lon;timestamp;P1;durP1;ratioP1;P2;durP2;ratioP2
11964;SDS011;6042;41.326;19.826;2022-08-25T00:01:35;8.47;;;7.13;;
11964;SDS011;6042;41.326;19.826;2022-08-25T00:04:06;13.43;;;7.47;;
11964;SDS011;6042;41.326;19.826;2022-08-25T00:06:39;9.43;;;7.10;;
11964;SDS011;6042;41.326;19.826;2022-08-25T00:09:10;14.43;;;7.27;;
11964;SDS011;6042;41.326;19.826;2022-08-25T00:11:41;10.83;;;7.07;;
11964;SDS011;6042;41.326;19.826;2022-08-25T00:14:12;13.00;;;7.40;;
11964;SDS011;6042;41.326;19.826;2022-08-25T00:16:43;16.57;;;7.80;;
11964;SDS011;6042;41.326;19.826;2022-08-25T00:19:13;7.70;;;7.00;;
11964;SDS011;6042;41.326;19.826;2022-08-25T00:21:43;9.23;;;6.87;;
11964;SDS011;6042;41.326;19.826;2022-08-25T00:24:13;8.77;;;6.87;;
11964;SDS011;6042;41.326;19.826;2022-08-25T00:26:46;12.13;;;7.73;;
11964;SDS011;6042;41.326;19.826;2022-08-25T00:29:19;12.30;;;8.13;;
11964;SDS011;6042;41.326;19.826;2022-08-25T00:31:48;13.23;;;7.53;;
11964;SDS011;6042;41.326;19.826;2022-08-25T00:34:19;10.80;;;7.23;;
11964;SDS011;6042;41.326;19.826;2022-08-25T00:36:49;13.13;;;7.63;;
11964;SDS011;6042;41.326;19.826;2022-08-25T00:39:19;9.20;;;7.13;;
11964;SDS011;6042;41.326;19.826;2022-08-25T00:41:50;13.90;;;7.37;;
11964;SDS011;6042;41.326;19.826;2022-08-25T00:44:23;9.73;;;5.73;;
11964;SDS011;6042;41.326;19.826;2022-08-25T00:46:54;6.53;;;4.97;;
11964;SDS011;6042;41.326;19.826;2022-08-25T00:58:04;7.50;;;4.13;;
11964;SDS011;6042;41.326;19.826;2022-08-25T01:00:41;6.67;;;3.80;;
11964;SDS011;6042;41.326;19.826;2022-08-25T01:03:12;9.90;;;3.60;;
11964;SDS011;6042;41.326;19.826;2022-08-25T01:05:41;6.23;;;3.77;;
11964;SDS011;6042;41.326;19.826;2022-08-25T01:08:11;16.90;;;4.80;;
11964;SDS011;6042;41.326;19.826;2022-08-25T01:10:42;3.87;;;3.53;;
11964;SDS011;6042;41.326;19.826;2022-08-25T01:13:15;6.37;;;3.30;;
11964;SDS011;6042;41.326;19.826;2022-08-25T01:15:47;4.47;;;3.30;;
11964;SDS011;6042;41.326;19.826;2022-08-25T01:18:19;4.17;;;3.77;;
11964;SDS011;6042;41.326;19.826;2022-08-25T01:20:49;5.13;;;4.37;;
11964;SDS011;6042;41.326;19.826;2022-08-25T01:23:19;5.17;;;4.20;;
11964;SDS011;6042;41.326;19.826;2022-08-25T01:25:50;5.27;;;4.30;;
11964;SDS011;6042;41.326;19.826;2022-08-25T01:28:26;5.03;;;4.10;;
11964;SDS011;6042;41.326;19.826;2022-08-25T01:30:55;8.67;;;4.90;;
11964;SDS011;6042;41.326;19.826;2022-08-25T01:33:24;9.67;;;5.00;;
11964;SDS011;6042;41.326;19.826;2022-08-25T01:35:54;7.47;;;4.87;;
11964;SDS011;6042;41.326;19.826;2022-08-25T01:38:22;8.43;;;5.20;;
11964;SDS011;6042;41.326;19.826;2022-08-25T01:40:51;7.07;;;6.37;;
11964;SDS011;6042;41.326;19.826;2022-08-25T01:43:21;10.53;;;6.73;;
11964;SDS011;6042;41.326;19.826;2022-08-25T01:45:59;7.53;;;6.63;;
11964;SDS011;6042;41.326;19.826;2022-08-25T01:48:27;6.67;;;6.07;;
11964;SDS011;6042;41.326;19.826;2022-08-25T01:50:57;7.33;;;6.73;;
11964;SDS011;6042;41.326;19.826;2022-08-25T01:53:27;12.23;;;6.50;;
11964;SDS011;6042;41.326;19.826;2022-08-25T01:55:59;7.70;;;6.73;;
11964;SDS011;6042;41.326;19.826;2022-08-25T01:58:37;9.23;;;6.67;;
11964;SDS011;6042;41.326;19.826;2022-08-25T02:01:08;8.03;;;6.97;;
11964;SDS011;6042;41.326;19.826;2022-08-25T02:03:42;8.87;;;6.87;;
11964;SDS011;6042;41.326;19.826;2022-08-25T02:06:16;10.60;;;6.57;;
11964;SDS011;6042;41.326;19.826;2022-08-25T02:08:55;9.80;;;7.40;;
11964;SDS011;6042;41.326;19.826;2022-08-25T02:11:26;9.40;;;6.67;;
11964;SDS011;6042;41.326;19.826;2022-08-25T02:13:55;8.43;;;6.77;;
11964;SDS011;6042;41.326;19.826;2022-08-25T02:16:25;9.67;;;7.10;;
11964;SDS011;6042;41.326;19.826;2022-08-25T02:18:57;7.93;;;7.23;;
11964;SDS011;6042;41.326;19.826;2022-08-25T02:21:27;7.03;;;6.17;;
11964;SDS011;6042;41.326;19.826;2022-08-25T02:23:56;7.77;;;5.40;;
11964;SDS011;6042;41.326;19.826;2022-08-25T02:26:26;8.10;;;6.33;;
11964;SDS011;6042;41.326;19.826;2022-08-25T02:28:54;8.40;;;6.10;;
11964;SDS011;6042;41.326;19.826;2022-08-25T02:31:23;8.37;;;6.20;;
11964;SDS011;6042;41.326;19.826;2022-08-25T02:33:52;10.07;;;6.17;;
11964;SDS011;6042;41.326;19.826;2022-08-25T02:36:22;8.27;;;6.20;;
11964;SDS011;6042;41.326;19.826;2022-08-25T02:38:52;8.53;;;6.17;;
11964;SDS011;6042;41.326;19.826;2022-08-25T02:41:21;7.57;;;5.80;;
11964;SDS011;6042;41.326;19.826;2022-08-25T02:43:57;6.37;;;5.77;;
11964;SDS011;6042;41.326;19.826;2022-08-25T02:46:26;16.20;;;6.40;;
11964;SDS011;6042;41.326;19.826;2022-08-25T02:48:56;7.20;;;5.83;;
11964;SDS011;6042;41.326;19.826;2022-08-25T02:51:26;9.70;;;6.20;;
11964;SDS011;6042;41.326;19.826;2022-08-25T02:53:57;8.50;;;6.63;;
11964;SDS011;6042;41.326;19.826;2022-08-25T02:56:27;9.23;;;6.83;;
11964;SDS011;6042;41.326;19.826;2022-08-25T02:58:57;9.73;;;6.57;;
11964;SDS011;6042;41.326;19.826;2022-08-25T03:01:26;9.87;;;6.00;;
11964;SDS011;6042;41.326;19.826;2022-08-25T03:03:55;9.00;;;6.20;;
11964;SDS011;6042;41.326;19.826;2022-08-25T03:06:24;7.77;;;5.30;;
11964;SDS011;6042;41.326;19.826;2022-08-25T03:08:53;20.00;;;6.10;;
11964;SDS011;6042;41.326;19.826;2022-08-25T03:11:24;5.97;;;5.20;;
11964;SDS011;6042;41.326;19.826;2022-08-25T03:13:52;12.00;;;5.20;;
11964;SDS011;6042;41.326;19.826;2022-08-25T03:16:22;7.40;;;5.00;;
11964;SDS011;6042;41.326;19.826;2022-08-25T03:18:54;8.60;;;5.67;;
11964;SDS011;6042;41.326;19.826;2022-08-25T03:21:26;8.03;;;5.30;;
11964;SDS011;6042;41.326;19.826;2022-08-25T03:23:57;6.50;;;5.20;;
11964;SDS011;6042;41.326;19.826;2022-08-25T03:26:28;8.87;;;5.40;;
11964;SDS011;6042;41.326;19.826;2022-08-25T03:29:14;15.47;;;5.87;;
11964;SDS011;6042;41.326;19.826;2022-08-25T03:31:43;6.40;;;5.17;;
11964;SDS011;6042;41.326;19.826;2022-08-25T03:34:12;8.60;;;5.57;;
11964;SDS011;6042;41.326;19.826;2022-08-25T03:36:42;6.37;;;4.80;;
11964;SDS011;6042;41.326;19.826;2022-08-25T03:39:11;6.70;;;4.93;;
11964;SDS011;6042;41.326;19.826;2022-08-25T03:41:42;6.73;;;4.80;;
11964;SDS011;6042;41.326;19.826;2022-08-25T03:44:10;12.83;;;5.60;;
11964;SDS011;6042;41.326;19.826;2022-08-25T03:46:40;7.57;;;5.10;;
11964;SDS011;6042;41.326;19.826;2022-08-25T03:49:11;9.73;;;5.33;;
11964;SDS011;6042;41.326;19.826;2022-08-25T03:51:43;10.00;;;4.90;;
11964;SDS011;6042;41.326;19.826;2022-08-25T03:54:13;7.00;;;4.60;;
11964;SDS011;6042;41.326;19.826;2022-08-25T03:56:44;8.30;;;4.90;;
11964;SDS011;6042;41.326;19.826;2022-08-25T03:59:12;9.47;;;4.73;;
11964;SDS011;6042;41.326;19.826;2022-08-25T04:01:42;6.60;;;4.00;;
11964;SDS011;6042;41.326;19.826;2022-08-25T04:04:11;5.70;;;3.30;;
11964;SDS011;6042;41.326;19.826;2022-08-25T04:06:42;36.17;;;6.13;;
11964;SDS011;6042;41.326;19.826;2022-08-25T04:09:11;4.97;;;3.00;;
11964;SDS011;6042;41.326;19.826;2022-08-25T04:11:39;8.17;;;3.23;;
11964;SDS011;6042;41.326;19.826;2022-08-25T04:14:11;5.30;;;2.57;;
11964;SDS011;6042;41.326;19.826;2022-08-25T04:16:42;3.50;;;2.67;;
11964;SDS011;6042;41.326;19.826;2022-08-25T04:19:11;22.23;;;4.67;;
11964;SDS011;6042;41.326;19.826;2022-08-25T04:21:40;9.60;;;3.37;;
11964;SDS011;6042;41.326;19.826;2022-08-25T04:24:09;6.07;;;2.87;;
11964;SDS011;6042;41.326;19.826;2022-08-25T04:26:40;3.97;;;2.80;;
11964;SDS011;6042;41.326;19.826;2022-08-25T04:29:10;13.73;;;3.47;;
11964;SDS011;6042;41.326;19.826;2022-08-25T04:31:43;29.27;;;4.73;;
11964;SDS011;6042;41.326;19.826;2022-08-25T04:34:14;10.77;;;4.10;;
11964;SDS011;6042;41.326;19.826;2022-08-25T04:36:57;4.20;;;2.77;;
11964;SDS011;6042;41.326;19.826;2022-08-25T04:39:28;17.00;;;4.00;;
11964;SDS011;6042;41.326;19.826;2022-08-25T04:42:00;4.93;;;2.67;;
11964;SDS011;6042;41.326;19.826;2022-08-25T04:44:30;27.63;;;4.80;;
11964;SDS011;6042;41.326;19.826;2022-08-25T04:46:59;13.90;;;3.27;;
11964;SDS011;6042;41.326;19.826;2022-08-25T04:49:28;4.83;;;2.47;;
11964;SDS011;6042;41.326;19.826;2022-08-25T04:51:57;6.97;;;2.97;;
11964;SDS011;6042;41.326;19.826;2022-08-25T04:54:26;12.03;;;3.20;;
11964;SDS011;6042;41.326;19.826;2022-08-25T04:57:02;9.83;;;3.30;;
11964;SDS011;6042;41.326;19.826;2022-08-25T04:59:32;13.97;;;3.00;;
11964;SDS011;6042;41.326;19.826;2022-08-25T05:02:01;3.07;;;2.53;;
11964;SDS011;6042;41.326;19.826;2022-08-25T05:04:31;4.73;;;2.40;;
11964;SDS011;6042;41.326;19.826;2022-08-25T05:07:01;6.10;;;2.60;;
11964;SDS011;6042;41.326;19.826;2022-08-25T05:09:31;6.07;;;2.57;;
11964;SDS011;6042;41.326;19.826;2022-08-25T05:12:00;6.10;;;2.47;;
11964;SDS011;6042;41.326;19.826;2022-08-25T05:14:29;6.40;;;2.97;;
11964;SDS011;6042;41.326;19.826;2022-08-25T05:16:59;11.20;;;3.43;;
11964;SDS011;6042;41.326;19.826;2022-08-25T05:19:28;5.63;;;2.83;;
11964;SDS011;6042;41.326;19.826;2022-08-25T05:21:56;15.83;;;3.67;;
11964;SDS011;6042;41.326;19.826;2022-08-25T05:24:25;4.90;;;2.83;;
11964;SDS011;6042;41.326;19.826;2022-08-25T05:26:55;9.77;;;3.30;;
11964;SDS011;6042;41.326;19.826;2022-08-25T05:29:24;15.67;;;4.10;;
11964;SDS011;6042;41.326;19.826;2022-08-25T05:31:52;8.40;;;3.47;;
11964;SDS011;6042;41.326;19.826;2022-08-25T05:34:22;13.43;;;3.70;;
11964;SDS011;6042;41.326;19.826;2022-08-25T05:36:51;12.97;;;3.47;;
11964;SDS011;6042;41.326;19.826;2022-08-25T05:39:20;20.67;;;4.20;;
11964;SDS011;6042;41.326;19.826;2022-08-25T05:41:52;7.43;;;3.17;;
11964;SDS011;6042;41.326;19.826;2022-08-25T05:44:20;16.47;;;3.80;;
11964;SDS011;6042;41.326;19.826;2022-08-25T05:46:49;15.50;;;3.87;;
11964;SDS011;6042;41.326;19.826;2022-08-25T05:49:17;13.87;;;3.60;;
11964;SDS011;6042;41.326;19.826;2022-08-25T05:51:47;24.07;;;3.47;;
11964;SDS011;6042;41.326;19.826;2022-08-25T05:54:16;11.57;;;2.73;;
11964;SDS011;6042;41.326;19.826;2022-08-25T05:56:45;10.83;;;3.07;;
11964;SDS011;6042;41.326;19.826;2022-08-25T05:59:13;6.03;;;3.10;;
11964;SDS011;6042;41.326;19.826;2022-08-25T06:01:42;13.70;;;3.90;;
11964;SDS011;6042;41.326;19.826;2022-08-25T06:04:28;12.83;;;3.13;;
11964;SDS011;6042;41.326;19.826;2022-08-25T06:06:58;11.93;;;3.70;;
11964;SDS011;6042;41.326;19.826;2022-08-25T06:09:26;37.10;;;4.73;;
11964;SDS011;6042;41.326;19.826;2022-08-25T06:11:55;25.13;;;5.07;;
11964;SDS011;6042;41.326;19.826;2022-08-25T06:14:23;72.63;;;11.37;;
11964;SDS011;6042;41.326;19.826;2022-08-25T06:16:53;11.93;;;3.97;;
11964;SDS011;6042;41.326;19.826;2022-08-25T06:19:22;15.13;;;4.27;;
11964;SDS011;6042;41.326;19.826;2022-08-25T06:21:52;5.77;;;3.20;;
11964;SDS011;6042;41.326;19.826;2022-08-25T06:24:23;16.77;;;4.00;;
11964;SDS011;6042;41.326;19.826;2022-08-25T06:26:53;5.63;;;3.50;;
11964;SDS011;6042;41.326;19.826;2022-08-25T06:29:22;8.53;;;3.80;;
11964;SDS011;6042;41.326;19.826;2022-08-25T06:31:51;7.60;;;3.63;;
11964;SDS011;6042;41.326;19.826;2022-08-25T06:34:19;6.53;;;3.93;;
11964;SDS011;6042;41.326;19.826;2022-08-25T06:36:50;19.37;;;6.57;;
11964;SDS011;6042;41.326;19.826;2022-08-25T06:39:19;18.33;;;7.40;;
11964;SDS011;6042;41.326;19.826;2022-08-25T06:41:53;7.97;;;6.80;;
11964;SDS011;6042;41.326;19.826;2022-08-25T06:44:24;11.73;;;7.03;;
11964;SDS011;6042;41.326;19.826;2022-08-25T06:46:53;13.23;;;7.80;;
11964;SDS011;6042;41.326;19.826;2022-08-25T06:49:22;8.87;;;7.40;;
11964;SDS011;6042;41.326;19.826;2022-08-25T06:52:01;7.63;;;5.97;;
11964;SDS011;6042;41.326;19.826;2022-08-25T06:54:30;20.63;;;7.50;;
11964;SDS011;6042;41.326;19.826;2022-08-25T06:57:00;9.37;;;5.73;;
11964;SDS011;6042;41.326;19.826;2022-08-25T06:59:29;12.77;;;5.80;;
11964;SDS011;6042;41.326;19.826;2022-08-25T07:01:58;19.17;;;6.50;;
11964;SDS011;6042;41.326;19.826;2022-08-25T07:04:28;15.43;;;6.20;;
11964;SDS011;6042;41.326;19.826;2022-08-25T07:06:57;11.37;;;5.70;;
11964;SDS011;6042;41.326;19.826;2022-08-25T07:09:26;11.57;;;5.67;;
11964;SDS011;6042;41.326;19.826;2022-08-25T07:11:55;19.10;;;6.67;;
11964;SDS011;6042;41.326;19.826;2022-08-25T07:14:25;18.23;;;5.37;;
11964;SDS011;6042;41.326;19.826;2022-08-25T07:16:54;13.83;;;6.27;;
11964;SDS011;6042;41.326;19.826;2022-08-25T07:19:24;20.33;;;7.00;;
11964;SDS011;6042;41.326;19.826;2022-08-25T07:21:53;13.47;;;6.93;;
11964;SDS011;6042;41.326;19.826;2022-08-25T07:24:21;21.20;;;8.53;;
11964;SDS011;6042;41.326;19.826;2022-08-25T07:26:50;27.30;;;9.20;;
11964;SDS011;6042;41.326;19.826;2022-08-25T07:29:20;24.47;;;9.73;;
11964;SDS011;6042;41.326;19.826;2022-08-25T07:32:00;20.93;;;8.47;;
11964;SDS011;6042;41.326;19.826;2022-08-25T07:34:28;35.07;;;11.27;;
11964;SDS011;6042;41.326;19.826;2022-08-25T07:37:18;27.70;;;8.90;;
11964;SDS011;6042;41.326;19.826;2022-08-25T07:40:08;23.57;;;9.43;;
11964;SDS011;6042;41.326;19.826;2022-08-25T07:42:40;19.87;;;8.73;;
11964;SDS011;6042;41.326;19.826;2022-08-25T07:45:09;16.50;;;8.03;;
11964;SDS011;6042;41.326;19.826;2022-08-25T07:47:42;63.40;;;12.57;;
11964;SDS011;6042;41.326;19.826;2022-08-25T07:50:11;46.10;;;10.83;;
11964;SDS011;6042;41.326;19.826;2022-08-25T07:52:40;39.53;;;10.60;;
11964;SDS011;6042;41.326;19.826;2022-08-25T07:55:08;15.40;;;8.10;;
11964;SDS011;6042;41.326;19.826;2022-08-25T07:57:43;18.47;;;8.87;;
11964;SDS011;6042;41.326;19.826;2022-08-25T08:00:19;17.20;;;7.07;;
11964;SDS011;6042;41.326;19.826;2022-08-25T08:02:51;24.97;;;7.40;;
11964;SDS011;6042;41.326;19.826;2022-08-25T08:05:20;12.33;;;6.67;;
11964;SDS011;6042;41.326;19.826;2022-08-25T08:07:49;21.30;;;7.53;;
11964;SDS011;6042;41.326;19.826;2022-08-25T08:10:19;14.87;;;5.50;;
11964;SDS011;6042;41.326;19.826;2022-08-25T08:13:09;6.43;;;5.27;;
11964;SDS011;6042;41.326;19.826;2022-08-25T08:15:44;13.80;;;7.27;;
11964;SDS011;6042;41.326;19.826;2022-08-25T08:18:15;41.43;;;9.83;;
11964;SDS011;6042;41.326;19.826;2022-08-25T08:20:44;51.57;;;11.73;;
11964;SDS011;6042;41.326;19.826;2022-08-25T08:23:14;10.63;;;5.93;;
11964;SDS011;6042;41.326;19.826;2022-08-25T08:25:43;6.00;;;4.27;;
11964;SDS011;6042;41.326;19.826;2022-08-25T08:28:11;8.10;;;6.07;;
11964;SDS011;6042;41.326;19.826;2022-08-25T08:30:40;12.77;;;7.20;;
11964;SDS011;6042;41.326;19.826;2022-08-25T08:33:22;17.50;;;8.07;;
11964;SDS011;6042;41.326;19.826;2022-08-25T08:35:57;12.93;;;8.37;;
11964;SDS011;6042;41.326;19.826;2022-08-25T08:38:31;17.83;;;8.60;;
11964;SDS011;6042;41.326;19.826;2022-08-25T08:41:06;18.57;;;9.60;;
11964;SDS011;6042;41.326;19.826;2022-08-25T08:44:21;15.03;;;10.47;;
11964;SDS011;6042;41.326;19.826;2022-08-25T08:46:57;19.27;;;12.50;;
11964;SDS011;6042;41.326;19.826;2022-08-25T08:49:39;26.40;;;12.37;;
11964;SDS011;6042;41.326;19.826;2022-08-25T08:52:16;19.53;;;12.23;;
11964;SDS011;6042;41.326;19.826;2022-08-25T08:54:53;17.87;;;12.30;;
11964;SDS011;6042;41.326;19.826;2022-08-25T08:57:31;23.20;;;12.37;;
11964;SDS011;6042;41.326;19.826;2022-08-25T09:00:06;24.97;;;11.57;;
11964;SDS011;6042;41.326;19.826;2022-08-25T09:02:37;20.90;;;11.63;;
11964;SDS011;6042;41.326;19.826;2022-08-25T09:05:19;25.57;;;13.90;;
11964;SDS011;6042;41.326;19.826;2022-08-25T09:07:52;22.47;;;11.83;;
11964;SDS011;6042;41.326;19.826;2022-08-25T09:10:23;21.07;;;11.07;;
11964;SDS011;6042;41.326;19.826;2022-08-25T09:12:57;22.77;;;10.63;;
11964;SDS011;6042;41.326;19.826;2022-08-25T09:15:39;36.63;;;12.13;;
11964;SDS011;6042;41.326;19.826;2022-08-25T09:18:34;26.83;;;13.35;;
11964;SDS011;6042;41.326;19.826;2022-08-25T09:21:21;18.93;;;10.50;;
11964;SDS011;6042;41.326;19.826;2022-08-25T09:24:04;22.67;;;13.83;;
11964;SDS011;6042;41.326;19.826;2022-08-25T09:26:45;20.47;;;11.70;;
11964;SDS011;6042;41.326;19.826;2022-08-25T09:29:26;17.63;;;11.20;;
11964;SDS011;6042;41.326;19.826;2022-08-25T09:32:03;36.67;;;14.10;;
11964;SDS011;6042;41.326;19.826;2022-08-25T09:34:36;17.97;;;10.93;;
11964;SDS011;6042;41.326;19.826;2022-08-25T09:37:05;20.67;;;12.00;;
11964;SDS011;6042;41.326;19.826;2022-08-25T09:39:34;27.58;;;11.70;;
11964;SDS011;6042;41.326;19.826;2022-08-25T09:42:04;16.35;;;11.43;;
11964;SDS011;6042;41.326;19.826;2022-08-25T09:44:38;17.25;;;12.20;;
11964;SDS011;6042;41.326;19.826;2022-08-25T09:47:13;19.83;;;11.45;;
11964;SDS011;6042;41.326;19.826;2022-08-25T09:49:48;23.37;;;11.90;;
11964;SDS011;6042;41.326;19.826;2022-08-25T09:52:32;39.30;;;13.93;;
11964;SDS011;6042;41.326;19.826;2022-08-25T09:55:22;19.53;;;12.10;;
11964;SDS011;6042;41.326;19.826;2022-08-25T09:57:58;16.83;;;11.23;;
11964;SDS011;6042;41.326;19.826;2022-08-25T10:00:35;16.48;;;11.20;;
11964;SDS011;6042;41.326;19.826;2022-08-25T10:03:08;26.83;;;12.70;;
11964;SDS011;6042;41.326;19.826;2022-08-25T10:05:49;15.60;;;11.98;;
11964;SDS011;6042;41.326;19.826;2022-08-25T10:08:32;15.85;;;12.00;;
11964;SDS011;6042;41.326;19.826;2022-08-25T10:11:07;17.85;;;11.20;;
11964;SDS011;6042;41.326;19.826;2022-08-25T10:13:40;14.20;;;11.83;;
11964;SDS011;6042;41.326;19.826;2022-08-25T10:16:12;15.68;;;11.43;;
11964;SDS011;6042;41.326;19.826;2022-08-25T10:18:59;15.90;;;12.40;;
11964;SDS011;6042;41.326;19.826;2022-08-25T10:21:30;15.57;;;11.45;;
11964;SDS011;6042;41.326;19.826;2022-08-25T10:24:00;15.85;;;10.95;;
11964;SDS011;6042;41.326;19.826;2022-08-25T10:26:37;14.07;;;10.97;;
11964;SDS011;6042;41.326;19.826;2022-08-25T10:29:18;14.90;;;11.63;;
11964;SDS011;6042;41.326;19.826;2022-08-25T10:31:58;39.00;;;13.35;;
11964;SDS011;6042;41.326;19.826;2022-08-25T10:34:40;22.90;;;12.00;;
11964;SDS011;6042;41.326;19.826;2022-08-25T10:37:20;16.92;;;10.60;;
11964;SDS011;6042;41.326;19.826;2022-08-25T10:40:05;21.10;;;12.70;;
11964;SDS011;6042;41.326;19.826;2022-08-25T10:42:44;37.00;;;17.55;;
11964;SDS011;6042;41.326;19.826;2022-08-25T10:45:24;18.83;;;11.60;;
11964;SDS011;6042;41.326;19.826;2022-08-25T10:48:19;16.30;;;11.13;;
11964;SDS011;6042;41.326;19.826;2022-08-25T10:51:04;31.88;;;13.68;;
11964;SDS011;6042;41.326;19.826;2022-08-25T10:53:50;24.67;;;11.45;;
11964;SDS011;6042;41.326;19.826;2022-08-25T10:56:30;30.77;;;11.43;;
11964;SDS011;6042;41.326;19.826;2022-08-25T10:59:09;13.10;;;10.57;;
11964;SDS011;6042;41.326;19.826;2022-08-25T11:04:51;18.67;;;10.85;;
11964;SDS011;6042;41.326;19.826;2022-08-25T11:07:27;17.73;;;10.85;;
11964;SDS011;6042;41.326;19.826;2022-08-25T11:10:02;17.90;;;10.57;;
11964;SDS011;6042;41.326;19.826;2022-08-25T11:12:39;16.00;;;10.43;;
11964;SDS011;6042;41.326;19.826;2022-08-25T11:15:15;14.70;;;10.23;;
11964;SDS011;6042;41.326;19.826;2022-08-25T11:17:47;17.45;;;10.20;;
11964;SDS011;6042;41.326;19.826;2022-08-25T11:20:23;23.30;;;12.18;;
11964;SDS011;6042;41.326;19.826;2022-08-25T11:23:05;18.58;;;10.40;;
11964;SDS011;6042;41.326;19.826;2022-08-25T11:25:40;15.70;;;10.23;;
11964;SDS011;6042;41.326;19.826;2022-08-25T11:28:12;16.17;;;9.80;;
11964;SDS011;6042;41.326;19.826;2022-08-25T11:30:48;16.85;;;9.63;;
11964;SDS011;6042;41.326;19.826;2022-08-25T11:33:18;13.85;;;9.90;;
11964;SDS011;6042;41.326;19.826;2022-08-25T11:35:48;14.32;;;8.95;;
11964;SDS011;6042;41.326;19.826;2022-08-25T11:38:23;15.05;;;9.57;;
11964;SDS011;6042;41.326;19.826;2022-08-25T11:41:04;25.85;;;12.57;;
11964;SDS011;6042;41.326;19.826;2022-08-25T11:43:54;53.10;;;13.85;;
11964;SDS011;6042;41.326;19.826;2022-08-25T11:46:37;15.43;;;9.25;;
11964;SDS011;6042;41.326;19.826;2022-08-25T11:55:10;15.48;;;8.90;;
11964;SDS011;6042;41.326;19.826;2022-08-25T11:57:40;14.30;;;7.63;;
11964;SDS011;6042;41.326;19.826;2022-08-25T12:00:36;11.70;;;7.80;;
11964;SDS011;6042;41.326;19.826;2022-08-25T12:06:19;9.30;;;6.63;;
11964;SDS011;6042;41.326;19.826;2022-08-25T12:11:53;10.88;;;8.40;;
11964;SDS011;6042;41.326;19.826;2022-08-25T12:17:23;13.07;;;7.82;;
11964;SDS011;6042;41.326;19.826;2022-08-25T12:20:05;17.60;;;8.88;;
11964;SDS011;6042;41.326;19.826;2022-08-25T12:22:52;9.50;;;7.15;;
11964;SDS011;6042;41.326;19.826;2022-08-25T12:25:36;16.10;;;7.25;;
11964;SDS011;6042;41.326;19.826;2022-08-25T12:31:16;14.95;;;7.00;;
11964;SDS011;6042;41.326;19.826;2022-08-25T12:34:00;9.88;;;6.45;;
11964;SDS011;6042;41.326;19.826;2022-08-25T12:36:38;12.50;;;6.57;;
11964;SDS011;6042;41.326;19.826;2022-08-25T12:39:22;10.88;;;8.23;;
11964;SDS011;6042;41.326;19.826;2022-08-25T12:41:58;14.35;;;8.27;;
11964;SDS011;6042;41.326;19.826;2022-08-25T12:44:34;14.48;;;7.88;;
11964;SDS011;6042;41.326;19.826;2022-08-25T12:47:12;11.50;;;7.30;;
11964;SDS011;6042;41.326;19.826;2022-08-25T12:53:05;20.95;;;8.65;;
11964;SDS011;6042;41.326;19.826;2022-08-25T12:55:39;12.27;;;7.60;;
11964;SDS011;6042;41.326;19.826;2022-08-25T12:58:12;10.90;;;7.50;;
11964;SDS011;6042;41.326;19.826;2022-08-25T13:00:48;12.35;;;8.15;;
11964;SDS011;6042;41.326;19.826;2022-08-25T13:03:43;11.13;;;8.05;;
11964;SDS011;6042;41.326;19.826;2022-08-25T13:06:40;14.32;;;8.80;;
11964;SDS011;6042;41.326;19.826;2022-08-25T13:09:36;10.65;;;7.72;;
11964;SDS011;6042;41.326;19.826;2022-08-25T13:12:28;15.60;;;8.30;;
11964;SDS011;6042;41.326;19.826;2022-08-25T13:15:00;13.45;;;8.20;;
11964;SDS011;6042;41.326;19.826;2022-08-25T13:17:31;13.40;;;8.05;;
11964;SDS011;6042;41.326;19.826;2022-08-25T13:20:13;15.63;;;9.02;;
11964;SDS011;6042;41.326;19.826;2022-08-25T13:22:47;16.23;;;9.00;;
11964;SDS011;6042;41.326;19.826;2022-08-25T13:25:24;23.77;;;9.77;;
11964;SDS011;6042;41.326;19.826;2022-08-25T13:27:58;17.73;;;8.52;;
11964;SDS011;6042;41.326;19.826;2022-08-25T13:30:30;12.98;;;7.10;;
11964;SDS011;6042;41.326;19.826;2022-08-25T13:33:13;13.27;;;7.93;;
11964;SDS011;6042;41.326;19.826;2022-08-25T13:35:46;16.90;;;9.10;;
11964;SDS011;6042;41.326;19.826;2022-08-25T13:38:19;16.80;;;8.43;;
11964;SDS011;6042;41.326;19.826;2022-08-25T13:40:46;11.27;;;7.30;;
11964;SDS011;6042;41.326;19.826;2022-08-25T13:43:15;12.73;;;7.65;;
11964;SDS011;6042;41.326;19.826;2022-08-25T13:45:53;9.60;;;7.43;;
11964;SDS011;6042;41.326;19.826;2022-08-25T13:48:30;9.30;;;7.40;;
11964;SDS011;6042;41.326;19.826;2022-08-25T13:51:09;18.00;;;9.38;;
11964;SDS011;6042;41.326;19.826;2022-08-25T13:53:49;21.25;;;7.72;;
11964;SDS011;6042;41.326;19.826;2022-08-25T13:56:26;16.00;;;7.20;;
11964;SDS011;6042;41.326;19.826;2022-08-25T13:59:16;25.85;;;8.65;;
11964;SDS011;6042;41.326;19.826;2022-08-25T14:01:49;53.28;;;11.65;;
11964;SDS011;6042;41.326;19.826;2022-08-25T14:04:21;14.27;;;7.55;;
11964;SDS011;6042;41.326;19.826;2022-08-25T14:07:12;15.02;;;8.38;;
11964;SDS011;6042;41.326;19.826;2022-08-25T14:09:54;16.20;;;7.45;;
11964;SDS011;6042;41.326;19.826;2022-08-25T14:12:25;12.20;;;8.00;;
11964;SDS011;6042;41.326;19.826;2022-08-25T14:15:04;13.45;;;7.82;;
11964;SDS011;6042;41.326;19.826;2022-08-25T14:17:39;12.48;;;8.15;;
11964;SDS011;6042;41.326;19.826;2022-08-25T14:20:19;14.02;;;8.38;;
11964;SDS011;6042;41.326;19.826;2022-08-25T14:22:53;15.60;;;9.25;;
11964;SDS011;6042;41.326;19.826;2022-08-25T14:25:26;16.17;;;9.23;;
11964;SDS011;6042;41.326;19.826;2022-08-25T14:28:00;10.20;;;8.35;;
11964;SDS011;6042;41.326;19.826;2022-08-25T14:30:33;17.52;;;8.50;;
11964;SDS011;6042;41.326;19.826;2022-08-25T14:33:09;13.38;;;8.40;;
11964;SDS011;6042;41.326;19.826;2022-08-25T14:35:38;13.27;;;7.68;;
11964;SDS011;6042;41.326;19.826;2022-08-25T14:38:08;12.02;;;8.02;;
11964;SDS011;6042;41.326;19.826;2022-08-25T14:40:39;10.18;;;7.72;;
11964;SDS011;6042;41.326;19.826;2022-08-25T14:43:08;13.07;;;7.22;;
11964;SDS011;6042;41.326;19.826;2022-08-25T14:45:38;12.00;;;7.60;;
11964;SDS011;6042;41.326;19.826;2022-08-25T14:48:09;12.52;;;8.18;;
11964;SDS011;6042;41.326;19.826;2022-08-25T14:50:44;10.73;;;8.70;;
11964;SDS011;6042;41.326;19.826;2022-08-25T14:53:16;9.70;;;7.45;;
11964;SDS011;6042;41.326;19.826;2022-08-25T14:55:46;11.60;;;8.63;;
11964;SDS011;6042;41.326;19.826;2022-08-25T14:58:17;11.85;;;8.13;;
11964;SDS011;6042;41.326;19.826;2022-08-25T15:00:52;12.32;;;7.68;;
11964;SDS011;6042;41.326;19.826;2022-08-25T15:03:24;11.80;;;8.15;;
11964;SDS011;6042;41.326;19.826;2022-08-25T15:05:57;10.43;;;8.40;;
11964;SDS011;6042;41.326;19.826;2022-08-25T15:08:26;14.38;;;8.18;;
11964;SDS011;6042;41.326;19.826;2022-08-25T15:11:14;11.75;;;8.52;;
11964;SDS011;6042;41.326;19.826;2022-08-25T15:13:42;12.65;;;8.07;;
11964;SDS011;6042;41.326;19.826;2022-08-25T15:16:22;14.07;;;8.63;;
11964;SDS011;6042;41.326;19.826;2022-08-25T15:19:01;13.68;;;9.57;;
11964;SDS011;6042;41.326;19.826;2022-08-25T15:21:32;11.48;;;8.60;;
11964;SDS011;6042;41.326;19.826;2022-08-25T15:24:02;16.58;;;8.75;;
11964;SDS011;6042;41.326;19.826;2022-08-25T15:26:32;14.60;;;9.30;;
11964;SDS011;6042;41.326;19.826;2022-08-25T15:29:05;17.15;;;8.07;;
11964;SDS011;6042;41.326;19.826;2022-08-25T15:31:34;11.18;;;7.93;;
11964;SDS011;6042;41.326;19.826;2022-08-25T15:34:04;14.18;;;7.93;;
11964;SDS011;6042;41.326;19.826;2022-08-25T15:36:37;14.27;;;8.45;;
11964;SDS011;6042;41.326;19.826;2022-08-25T15:39:07;15.35;;;8.68;;
11964;SDS011;6042;41.326;19.826;2022-08-25T15:41:37;14.10;;;7.68;;
11964;SDS011;6042;41.326;19.826;2022-08-25T15:44:08;15.73;;;7.78;;
11964;SDS011;6042;41.326;19.826;2022-08-25T15:46:38;12.98;;;8.07;;